Redruth, United Kingdom
Current Conditions -  °F | °C
As of 4:50 PM on Thursday 23 Oct 2014 (Local Time) from EGDR Reporting Station
Overcast Overcast  
Wind Chill: 57°   Ceiling: 2000
Heat Index: 57°   Visibility: 6mi
Dew Point: 55°   Wind: 14mph
Humidity: 94%   Direction: 220°SW
Pressure: 30.06"   Gusts: NA
Location:  50.23°N, 5.23°W
Report Text: EGDR 231550Z 22012KT 9999 FEW006 BKN020 OVC025 14/13 Q1018 WHT
Loading
Personal Weather Stations






























Interactive Weather Map
Tropical Storm Tracking
New forecast layout! Learn more

10-Day Weather Forecast

Advertisements
Track Severe Weather on mobile